Time;durP1;ratioP1;P1;durP2;ratioP2;P2;SDS_P1;SDS_P2;PMS_P1;PMS_P2;Temp;Humidity;BMP_temperature;BMP_pressure;BME280_temperature;BME280_humidity;BME280_pressure;Samples;Min_cycle;Max_cycle;Signal;HPM_P1;HPM_P2
2021/12/17 00:04:49;;;;;;;22.67;8.17;;;4.80;99.90;;;;;;10306154;28;20546;-86
2021/12/17 00:09:52;;;;;;;23.75;8.55;;;4.80;99.90;;;;;;10274971;28;20034;-85
2021/12/17 00:14:53;;;;;;;24.63;8.33;;;4.80;99.90;;;;;;10273471;28;20038;-89
2021/12/17 00:56:45;;;;;;;21.23;8.90;;;4.60;99.90;;;;;;10318711;28;20035;-87
2021/12/17 01:01:46;;;;;;;22.60;8.37;;;4.60;99.90;;;;;;10302449;28;20092;-86
2021/12/17 01:06:48;;;;;;;23.23;8.10;;;4.50;99.90;;;;;;10317339;28;20118;-87
2021/12/17 01:11:48;;;;;;;25.07;7.83;;;4.40;99.90;;;;;;10289226;28;20238;-86
2021/12/17 01:16:51;;;;;;;22.87;8.83;;;4.40;99.90;;;;;;10303443;28;20088;-86
2021/12/17 01:42:55;;;;;;;23.13;9.10;;;4.00;99.90;;;;;;10310751;28;20045;-87
2021/12/17 01:47:58;;;;;;;25.40;10.00;;;4.00;99.90;;;;;;10305106;28;20039;-85
2021/12/17 02:03:38;;;;;;;22.03;8.53;;;4.20;99.90;;;;;;10299082;28;20055;-85
2021/12/17 02:08:42;;;;;;;29.43;10.93;;;4.20;99.90;;;;;;10277982;28;20105;-86
2021/12/17 02:29:58;;;;;;;23.80;8.33;;;4.30;99.90;;;;;;10287376;28;20043;-86
2021/12/17 02:50:38;;;;;;;28.37;9.37;;;4.30;99.90;;;;;;10286355;28;22074;-86
2021/12/17 02:55:46;;;;;;;20.00;7.97;;;4.20;99.90;;;;;;10286650;28;20557;-88
2021/12/17 03:00:47;;;;;;;22.77;8.47;;;4.20;99.90;;;;;;10285864;28;20031;-87
2021/12/17 03:05:49;;;;;;;22.97;9.00;;;4.20;99.90;;;;;;10285485;28;20051;-86
2021/12/17 03:10:51;;;;;;;20.57;8.33;;;4.20;99.90;;;;;;10267714;28;20398;-84
2021/12/17 03:15:58;;;;;;;20.10;8.20;;;4.20;99.90;;;;;;10286016;28;20490;-88
2021/12/17 03:26:26;;;;;;;34.43;10.70;;;4.10;99.90;;;;;;10285576;28;20417;-87
2021/12/17 03:31:28;;;;;;;24.67;9.07;;;4.10;99.90;;;;;;10285363;28;20043;-86
2021/12/17 03:36:29;;;;;;;25.30;9.43;;;4.10;99.90;;;;;;10284935;28;20614;-85
2021/12/17 03:41:37;;;;;;;23.17;9.57;;;4.10;99.90;;;;;;10285481;28;20038;-87
2021/12/17 03:46:37;;;;;;;22.40;9.30;;;4.10;99.90;;;;;;10285706;28;20138;-87
2021/12/17 03:51:48;;;;;;;32.47;10.30;;;4.10;99.90;;;;;;10291605;28;20512;-87
2021/12/17 03:56:49;;;;;;;20.83;8.23;;;4.10;99.90;;;;;;10291878;28;20088;-88
2021/12/17 04:01:49;;;;;;;22.13;8.83;;;4.10;99.90;;;;;;10291818;28;20039;-86
2021/12/17 04:06:50;;;;;;;26.53;9.87;;;4.10;99.90;;;;;;10292071;28;20066;-86
2021/12/17 04:11:51;;;;;;;21.87;9.77;;;4.10;99.90;;;;;;10291969;28;20030;-88
2021/12/17 04:16:51;;;;;;;27.87;9.80;;;4.10;99.90;;;;;;10290400;28;20035;-85
2021/12/17 04:21:52;;;;;;;21.97;8.60;;;4.10;99.90;;;;;;10290910;28;20031;-87
2021/12/17 04:26:53;;;;;;;29.07;9.20;;;4.10;99.90;;;;;;10290404;28;20027;-88
2021/12/17 04:31:55;;;;;;;28.37;9.40;;;4.10;99.90;;;;;;10303673;28;20030;-87
2021/12/17 04:36:57;;;;;;;26.57;9.10;;;4.10;99.90;;;;;;10283436;28;20113;-88
2021/12/17 04:42:03;;;;;;;26.47;8.40;;;4.10;99.90;;;;;;10274947;28;20741;-87
2021/12/17 04:57:36;;;;;;;20.60;7.73;;;4.00;99.90;;;;;;10291374;28;20043;-88
2021/12/17 05:02:43;;;;;;;22.60;8.70;;;4.00;99.90;;;;;;10296527;28;20035;-87
2021/12/17 05:08:22;;;;;;;23.27;8.40;;;3.90;99.90;;;;;;10291642;28;20030;-86
2021/12/17 05:18:35;;;;;;;20.73;8.40;;;3.90;99.90;;;;;;10265478;28;20042;-87
2021/12/17 05:23:42;;;;;;;22.70;8.27;;;3.90;99.90;;;;;;10299044;28;20050;-83
2021/12/17 05:28:42;;;;;;;;;;;3.90;99.90;;;;;;10261927;28;20479;-86
2021/12/17 05:33:43;;;;;;;19.17;8.13;;;3.80;99.90;;;;;;10270850;28;19936;-85
2021/12/17 05:38:44;;;;;;;29.03;8.43;;;3.80;99.90;;;;;;10292320;28;20030;-85
2021/12/17 05:43:54;;;;;;;18.70;7.97;;;3.80;99.90;;;;;;10311387;28;20184;-88
2021/12/17 05:48:54;;;;;;;27.03;8.87;;;3.80;99.90;;;;;;10296175;28;20137;-84
2021/12/17 05:53:55;;;;;;;19.03;7.63;;;3.80;99.90;;;;;;10289178;28;20149;-85
2021/12/17 05:58:56;;;;;;;23.97;8.57;;;3.80;99.90;;;;;;10288345;28;20023;-84
2021/12/17 06:03:57;;;;;;;24.03;9.23;;;3.80;99.90;;;;;;10284715;28;20038;-84
2021/12/17 06:09:00;;;;;;;26.67;9.10;;;3.70;99.90;;;;;;10285284;28;20023;-85
2021/12/17 06:14:01;;;;;;;23.97;8.37;;;3.70;99.90;;;;;;10285979;28;20027;-85
2021/12/17 06:19:03;;;;;;;20.53;6.87;;;3.70;99.90;;;;;;10287515;28;20106;-84
2021/12/17 06:24:04;;;;;;;22.80;8.10;;;3.70;99.90;;;;;;10288190;28;20427;-85
2021/12/17 06:29:05;;;;;;;24.57;7.03;;;3.70;99.90;;;;;;10287203;28;20038;-84
2021/12/17 06:34:05;;;;;;;23.87;6.97;;;3.70;99.90;;;;;;10287137;28;20034;-85
2021/12/17 06:39:06;;;;;;;22.60;8.20;;;3.70;99.90;;;;;;10286986;28;20477;-83
2021/12/17 06:44:10;;;;;;;22.67;8.07;;;3.70;99.90;;;;;;10286919;28;20410;-84
2021/12/17 06:49:25;;;;;;;22.43;8.00;;;3.70;99.90;;;;;;10286699;28;20058;-87
2021/12/17 07:42:02;;;;;;;23.97;7.63;;;3.70;99.90;;;;;;10293494;28;20038;-85
2021/12/17 07:47:03;;;;;;;31.10;7.93;;;3.60;99.90;;;;;;10292919;28;20039;-85
2021/12/17 07:52:04;;;;;;;26.47;8.27;;;3.70;99.90;;;;;;10293125;28;20081;-85
2021/12/17 07:57:05;;;;;;;19.43;7.73;;;3.70;99.90;;;;;;10292658;28;20774;-84
2021/12/17 08:02:06;;;;;;;23.50;8.30;;;3.70;99.90;;;;;;10292491;28;20031;-84
2021/12/17 08:07:07;;;;;;;21.13;8.70;;;3.80;99.90;;;;;;10274701;28;20422;-84
2021/12/17 08:12:10;;;;;;;22.23;7.07;;;3.90;99.90;;;;;;10292676;28;20033;-84
2021/12/17 08:28:02;;;;;;;14.90;7.27;;;4.00;99.90;;;;;;10291408;28;20117;-85
2021/12/17 08:33:05;;;;;;;16.83;7.13;;;4.00;99.90;;;;;;10291902;28;20114;-85
2021/12/17 08:38:07;;;;;;;23.33;7.23;;;4.00;99.90;;;;;;10272913;28;20584;-86
2021/12/17 08:43:08;;;;;;;25.27;8.13;;;4.10;99.90;;;;;;10291225;28;20045;-85
2021/12/17 08:48:09;;;;;;;22.70;8.70;;;4.10;99.90;;;;;;10290850;28;20050;-85
2021/12/17 08:53:09;;;;;;;18.90;9.13;;;4.20;99.90;;;;;;10290769;28;20057;-85
2021/12/17 08:58:13;;;;;;;18.13;6.40;;;4.20;99.90;;;;;;10290457;28;20031;-85
2021/12/17 09:03:14;;;;;;;18.83;7.27;;;4.20;99.90;;;;;;10290187;28;20445;-87
2021/12/17 09:08:16;;;;;;;22.10;7.73;;;4.20;99.90;;;;;;10272726;28;20023;-85
2021/12/17 09:13:16;;;;;;;20.20;6.80;;;4.30;99.90;;;;;;10272501;28;20033;-86
2021/12/17 09:18:17;;;;;;;29.47;8.40;;;4.30;99.90;;;;;;10289068;28;20031;-85
2021/12/17 09:23:19;;;;;;;22.93;7.40;;;4.40;99.90;;;;;;10281190;28;20139;-85
2021/12/17 09:28:20;;;;;;;19.10;7.17;;;4.40;99.90;;;;;;10289345;28;20038;-84
2021/12/17 09:33:21;;;;;;;22.77;7.47;;;4.40;99.90;;;;;;10289458;28;20027;-85
2021/12/17 09:38:21;;;;;;;18.30;6.77;;;4.40;99.90;;;;;;10289271;28;20027;-86
2021/12/17 09:43:23;;;;;;;20.10;8.17;;;4.50;99.90;;;;;;10289082;28;20122;-85
2021/12/17 09:48:24;;;;;;;19.40;7.07;;;4.50;99.90;;;;;;10288845;28;20114;-86
2021/12/17 09:53:25;;;;;;;21.23;6.73;;;4.50;99.90;;;;;;10288764;28;20038;-84
2021/12/17 09:58:25;;;;;;;18.30;6.07;;;4.50;99.90;;;;;;10288483;28;20671;-85
2021/12/17 10:03:26;;;;;;;25.10;8.00;;;4.50;99.90;;;;;;10288060;28;20039;-85
2021/12/17 10:08:27;;;;;;;17.33;6.90;;;4.50;99.90;;;;;;10287917;28;20050;-86
2021/12/17 10:13:30;;;;;;;20.37;8.03;;;4.60;99.90;;;;;;10287388;28;20026;-84
2021/12/17 10:18:38;;;;;;;20.17;6.97;;;4.60;99.90;;;;;;10287688;28;20031;-86
2021/12/17 10:23:41;;;;;;;17.17;6.33;;;4.70;99.90;;;;;;10287775;28;20075;-86
2021/12/17 10:28:58;;;;;;;21.93;7.10;;;4.70;99.90;;;;;;10269808;28;20530;-87
2021/12/17 10:34:01;;;;;;;22.03;7.37;;;4.60;99.90;;;;;;10287247;28;20023;-85
2021/12/17 10:39:20;;;;;;;19.57;8.50;;;4.60;99.90;;;;;;10286808;28;20031;-85
2021/12/17 10:44:22;;;;;;;21.60;6.40;;;4.60;99.90;;;;;;10286723;28;20379;-87
2021/12/17 10:49:26;;;;;;;18.20;7.70;;;4.50;99.90;;;;;;10286376;28;20055;-86
2021/12/17 10:54:28;;;;;;;24.37;8.83;;;4.60;99.90;;;;;;10287023;28;20429;-84
2021/12/17 10:59:31;;;;;;;27.23;9.87;;;4.60;99.90;;;;;;10289471;28;20718;-88
2021/12/17 11:04:41;;;;;;;22.23;8.70;;;4.60;99.90;;;;;;10295114;28;20039;-86
2021/12/17 11:09:49;;;;;;;17.77;7.93;;;4.60;99.90;;;;;;10277108;28;20672;-84
2021/12/17 11:14:51;;;;;;;20.60;9.87;;;4.60;99.90;;;;;;10294437;28;20038;-85
2021/12/17 11:19:54;;;;;;;21.40;10.37;;;4.50;99.90;;;;;;10294241;28;20023;-84
2021/12/17 11:24:56;;;;;;;24.90;10.10;;;4.40;99.90;;;;;;10294183;28;20046;-86
2021/12/17 11:29:58;;;;;;;27.73;10.67;;;4.40;99.90;;;;;;10294047;28;20037;-86
2021/12/17 11:34:59;;;;;;;32.40;11.43;;;4.30;99.90;;;;;;10293268;28;20033;-83
2021/12/17 11:40:05;;;;;;;23.30;11.00;;;4.30;99.90;;;;;;10293550;28;20069;-85
2021/12/17 11:45:25;;;;;;;;;;;4.30;99.90;;;;;;10293970;28;20113;-86
2021/12/17 11:50:31;;;;;;;27.80;12.50;;;4.40;99.90;;;;;;10293571;28;20024;-83
2021/12/17 11:55:35;;;;;;;28.40;10.77;;;4.30;99.90;;;;;;10293352;28;20546;-85
2021/12/17 12:00:42;;;;;;;29.20;11.37;;;4.30;99.90;;;;;;10292986;28;20109;-87
2021/12/17 12:05:44;;;;;;;29.70;11.87;;;4.30;99.90;;;;;;10292557;28;20062;-85
2021/12/17 12:11:03;;;;;;;29.60;11.87;;;4.30;99.90;;;;;;10292430;28;20041;-85
2021/12/17 12:16:06;;;;;;;28.67;11.80;;;4.30;99.90;;;;;;10292199;28;20130;-85
2021/12/17 12:21:07;;;;;;;30.23;12.17;;;4.30;99.90;;;;;;10291873;28;20483;-84
2021/12/17 12:26:13;;;;;;;31.13;12.10;;;4.30;99.90;;;;;;10291723;28;20034;-84
2021/12/17 12:31:17;;;;;;;35.50;14.18;;;4.30;99.90;;;;;;10291722;28;20015;-85
2021/12/17 12:36:37;;;;;;;31.73;14.00;;;4.30;99.90;;;;;;10291533;28;20027;-84
2021/12/17 12:41:48;;;;;;;30.90;12.90;;;4.30;99.90;;;;;;10291196;28;20581;-84
2021/12/17 12:46:57;;;;;;;31.67;14.30;;;4.30;99.90;;;;;;10290958;28;20246;-87
2021/12/17 12:52:23;;;;;;;27.67;13.33;;;4.30;99.90;;;;;;10273150;28;20811;-84
2021/12/17 12:57:24;;;;;;;35.95;13.95;;;4.20;99.90;;;;;;10290566;28;20097;-84
2021/12/17 13:02:26;;;;;;;39.17;14.17;;;4.20;99.90;;;;;;10289905;28;20122;-85
2021/12/17 13:07:35;;;;;;;33.50;15.57;;;4.20;99.90;;;;;;10273045;28;20041;-87
2021/12/17 13:12:37;;;;;;;41.97;16.50;;;4.20;99.90;;;;;;10283582;28;20038;-86
2021/12/17 13:20:15;;;;;;;39.57;15.73;;;4.10;99.90;;;;;;10257193;28;20027;-85
2021/12/17 13:23:18;;;;;;;37.93;15.23;;;4.10;99.90;;;;;;10248719;28;20039;-85
2021/12/17 13:28:19;;;;;;;35.00;14.77;;;4.10;99.90;;;;;;10249794;29;20811;-86
2021/12/17 13:33:19;;;;;;;37.87;14.73;;;4.00;99.90;;;;;;10249262;29;20106;-87
2021/12/17 13:38:20;;;;;;;43.00;16.17;;;4.00;99.90;;;;;;10249192;29;20023;-85
2021/12/17 13:43:28;;;;;;;40.73;16.80;;;4.00;99.90;;;;;;10249316;29;20117;-87
2021/12/17 13:48:29;;;;;;;42.83;17.27;;;4.00;99.90;;;;;;10249859;29;20059;-86
2021/12/17 13:53:30;;;;;;;40.67;17.53;;;4.00;99.90;;;;;;10273766;28;20027;-86
2021/12/17 13:58:32;;;;;;;40.80;19.03;;;4.00;99.90;;;;;;10286926;28;20031;-83
2021/12/17 14:03:34;;;;;;;50.20;20.13;;;4.00;99.90;;;;;;10285328;28;20043;-84
2021/12/17 14:08:40;;;;;;;52.30;19.70;;;4.00;99.90;;;;;;10286306;28;20049;-87
2021/12/17 14:13:42;;;;;;;45.53;17.45;;;4.00;99.90;;;;;;10269764;28;20078;-86
2021/12/17 14:18:43;;;;;;;41.83;17.10;;;3.90;99.90;;;;;;10287039;28;20035;-88
2021/12/17 14:23:44;;;;;;;48.17;17.40;;;3.90;99.90;;;;;;10270188;28;20574;-86
2021/12/17 14:28:45;;;;;;;38.30;15.10;;;3.80;99.90;;;;;;10287304;28;20031;-86
2021/12/17 14:33:50;;;;;;;39.07;14.50;;;3.80;99.90;;;;;;10285575;28;20034;-87
2021/12/17 14:39:00;;;;;;;30.20;12.10;;;3.80;99.90;;;;;;10286727;28;20540;-87
2021/12/17 14:44:18;;;;;;;38.83;12.70;;;3.80;99.90;;;;;;10287325;28;20182;-86
2021/12/17 15:04:58;;;;;;;30.37;13.03;;;3.50;99.90;;;;;;10285923;28;20053;-85
2021/12/17 15:09:59;;;;;;;25.10;11.30;;;3.40;99.90;;;;;;10256855;28;20386;-87
2021/12/17 15:15:13;;;;;;;23.70;11.63;;;3.40;99.90;;;;;;10284160;28;20035;-86
2021/12/17 15:20:16;;;;;;;36.00;12.63;;;3.40;99.90;;;;;;10285285;28;20114;-88
2021/12/17 15:25:19;;;;;;;33.83;12.37;;;3.30;99.90;;;;;;10285901;28;20038;-85
2021/12/17 15:30:26;;;;;;;27.30;11.23;;;3.30;99.90;;;;;;10284427;28;20030;-87
2021/12/17 15:35:28;;;;;;;29.47;11.97;;;3.40;99.90;;;;;;10285775;28;20031;-87
2021/12/17 15:40:29;;;;;;;28.07;11.60;;;3.40;99.90;;;;;;10286109;28;20046;-85
2021/12/17 15:45:31;;;;;;;30.33;10.97;;;3.40;99.90;;;;;;10282066;28;20085;-83
2021/12/17 15:50:33;;;;;;;29.27;10.77;;;3.40;99.90;;;;;;10277271;28;20066;-86
2021/12/17 15:55:34;;;;;;;26.23;10.77;;;3.40;99.90;;;;;;10288726;28;20037;-83
2021/12/17 16:00:36;;;;;;;25.37;10.70;;;3.50;99.90;;;;;;10292671;28;20062;-83
2021/12/17 16:05:37;;;;;;;22.00;10.43;;;3.50;99.90;;;;;;10291240;28;20154;-81
2021/12/17 16:21:16;;;;;;;22.83;10.80;;;3.50;99.90;;;;;;10292134;28;20303;-85
2021/12/17 16:26:19;;;;;;;30.17;10.83;;;3.50;99.90;;;;;;10305955;28;20035;-85
2021/12/17 16:31:23;;;;;;;30.13;11.13;;;3.60;99.90;;;;;;10297462;28;20494;-83
2021/12/17 16:36:24;;;;;;;29.17;10.33;;;3.60;99.90;;;;;;10297284;28;20035;-82
2021/12/17 16:41:25;;;;;;;26.17;9.87;;;3.60;99.90;;;;;;10302931;28;20038;-84
2021/12/17 16:51:40;;;;;;;28.47;10.47;;;3.70;99.90;;;;;;10289730;28;20474;-85
2021/12/17 16:57:21;;;;;;;23.77;10.40;;;3.70;99.90;;;;;;10267252;28;20430;-83
2021/12/17 17:02:43;;;;;;;26.33;9.80;;;3.70;99.90;;;;;;10285413;28;20046;-83
2021/12/17 17:07:44;;;;;;;30.50;10.40;;;3.80;99.90;;;;;;10289001;28;20064;-84
2021/12/17 17:12:48;;;;;;;31.17;11.50;;;3.80;99.90;;;;;;10294301;28;20105;-83
2021/12/17 17:17:49;;;;;;;31.80;12.50;;;3.70;99.90;;;;;;10294016;28;20042;-85
2021/12/17 17:22:50;;;;;;;22.07;9.40;;;3.80;99.90;;;;;;10291979;28;20035;-86
2021/12/17 17:27:51;;;;;;;22.20;10.47;;;3.80;99.90;;;;;;10288661;28;20504;-82
2021/12/17 17:32:52;;;;;;;24.50;10.47;;;3.80;99.90;;;;;;10301971;28;20065;-82
2021/12/17 17:37:52;;;;;;;27.73;11.13;;;3.80;99.90;;;;;;10285915;28;20093;-83
2021/12/17 17:42:53;;;;;;;29.07;10.27;;;3.80;99.90;;;;;;10286366;28;20596;-82
2021/12/17 17:47:54;;;;;;;25.83;9.77;;;3.80;99.90;;;;;;10288198;28;20109;-83
2021/12/17 17:52:55;;;;;;;21.97;8.60;;;3.90;99.90;;;;;;10275574;28;20074;-83
2021/12/17 17:57:56;;;;;;;24.70;10.30;;;3.90;99.90;;;;;;10288850;28;20706;-82
2021/12/17 18:02:57;;;;;;;25.57;8.17;;;3.80;99.90;;;;;;10302733;28;20035;-83
2021/12/17 18:07:58;;;;;;;28.03;9.13;;;3.90;99.90;;;;;;10286961;28;20038;-85
2021/12/17 18:12:59;;;;;;;17.73;8.03;;;3.90;99.90;;;;;;10286662;28;20039;-82
2021/12/17 18:17:59;;;;;;;22.23;8.73;;;3.90;99.90;;;;;;10285221;28;20045;-83
2021/12/17 18:23:00;;;;;;;18.17;7.93;;;3.90;99.90;;;;;;10282691;28;20039;-85
2021/12/17 18:28:08;;;;;;;17.60;7.67;;;3.80;99.90;;;;;;10267284;28;20035;-86
2021/12/17 18:33:09;;;;;;;16.27;6.03;;;3.90;99.90;;;;;;10267923;28;20495;-82
2021/12/17 18:38:09;;;;;;;18.63;6.67;;;3.90;99.90;;;;;;10252527;28;20038;-86
2021/12/17 18:48:31;;;;;;;21.97;7.20;;;3.90;99.90;;;;;;10273817;28;20074;-86
2021/12/17 18:53:32;;;;;;;22.77;7.07;;;3.90;99.90;;;;;;10286369;28;20062;-86
2021/12/17 18:58:32;;;;;;;14.73;6.67;;;3.80;99.90;;;;;;10286023;28;20023;-87
2021/12/17 19:03:33;;;;;;;22.90;6.63;;;3.80;99.90;;;;;;10265382;28;20546;-83
2021/12/17 19:08:34;;;;;;;16.17;6.67;;;3.80;99.90;;;;;;10249695;28;20035;-85
2021/12/17 19:13:35;;;;;;;18.57;8.30;;;3.80;99.90;;;;;;10268594;28;20109;-85
2021/12/17 19:18:55;;;;;;;24.20;8.27;;;3.80;99.90;;;;;;10285473;28;20382;-83
2021/12/17 19:24:01;;;;;;;22.27;7.97;;;3.80;99.90;;;;;;10292349;28;20778;-87
2021/12/17 19:29:04;;;;;;;24.97;8.47;;;3.80;99.90;;;;;;10293498;28;20510;-85
2021/12/17 19:34:05;;;;;;;19.53;7.27;;;3.80;99.90;;;;;;10292949;28;20039;-83
2021/12/17 19:39:07;;;;;;;18.50;6.90;;;3.80;99.90;;;;;;10300524;28;20043;-82
2021/12/17 19:44:10;;;;;;;22.90;7.33;;;3.80;99.90;;;;;;10297248;28;20125;-87
2021/12/17 19:54:12;;;;;;;18.63;6.90;;;3.80;99.90;;;;;;10298805;28;20026;-85
2021/12/17 19:59:12;;;;;;;22.30;8.33;;;3.70;99.90;;;;;;10298829;28;20038;-82
2021/12/17 20:10:25;;;;;;;17.40;7.83;;;3.70;99.90;;;;;;10296685;28;20478;-82
2021/12/17 20:15:26;;;;;;;24.47;9.00;;;3.70;99.90;;;;;;10298730;28;20029;-84
2021/12/17 20:20:27;;;;;;;16.03;7.53;;;3.70;99.90;;;;;;10296702;28;20077;-81
2021/12/17 20:25:28;;;;;;;25.97;8.53;;;3.70;99.90;;;;;;10300813;28;20042;-81
2021/12/17 20:30:29;;;;;;;21.80;8.37;;;3.70;99.90;;;;;;10326924;28;20050;-87
2021/12/17 20:35:29;;;;;;;19.93;8.17;;;3.70;99.90;;;;;;10293166;28;20053;-83
2021/12/17 20:40:30;;;;;;;22.83;8.43;;;3.70;99.90;;;;;;10294721;28;20039;-84
2021/12/17 20:45:32;;;;;;;20.97;7.70;;;3.60;99.90;;;;;;10295896;28;20430;-84
2021/12/17 20:50:34;;;;;;;18.70;7.57;;;3.70;99.90;;;;;;10296099;28;20046;-84
2021/12/17 20:55:37;;;;;;;21.93;6.77;;;3.60;99.90;;;;;;10294768;28;20041;-84
2021/12/17 21:00:40;;;;;;;24.03;8.57;;;3.60;99.90;;;;;;10289044;28;20383;-83
2021/12/17 21:05:47;;;;;;;23.03;8.87;;;3.60;99.90;;;;;;10265323;28;20034;-85
2021/12/17 21:10:49;;;;;;;21.73;9.27;;;3.60;99.90;;;;;;10257530;28;20042;-86
2021/12/17 21:15:51;;;;;;;19.87;7.23;;;3.50;99.90;;;;;;10256618;28;20037;-84
2021/12/17 21:20:54;;;;;;;22.37;7.93;;;3.50;99.90;;;;;;10257936;28;20058;-85
2021/12/17 21:25:55;;;;;;;20.03;8.57;;;3.50;99.90;;;;;;10271064;28;20149;-87
2021/12/17 21:30:56;;;;;;;23.20;7.93;;;3.40;99.90;;;;;;10300235;28;20042;-84
2021/12/17 21:36:01;;;;;;;21.20;8.13;;;3.40;99.90;;;;;;10293089;28;20035;-85
2021/12/17 21:41:02;;;;;;;18.48;7.68;;;3.40;99.90;;;;;;10267522;28;20045;-82
2021/12/17 21:46:03;;;;;;;15.57;6.63;;;3.50;99.90;;;;;;10313332;28;20034;-84
2021/12/17 21:51:05;;;;;;;16.63;6.63;;;3.40;99.90;;;;;;10319153;28;20075;-84
2021/12/17 21:56:05;;;;;;;18.57;7.33;;;3.40;99.90;;;;;;10274147;28;20038;-84
2021/12/17 22:01:09;;;;;;;23.23;7.00;;;3.40;99.90;;;;;;10292526;28;20034;-84
2021/12/17 22:06:11;;;;;;;18.37;6.77;;;3.40;99.90;;;;;;10270369;28;20405;-84
2021/12/17 22:11:12;;;;;;;18.30;6.27;;;3.40;99.90;;;;;;10287282;28;20039;-85
2021/12/17 22:16:12;;;;;;;13.43;5.87;;;3.40;99.90;;;;;;10296191;28;20065;-85
2021/12/17 22:21:18;;;;;;;17.67;7.03;;;3.40;99.90;;;;;;10286105;28;20027;-85
2021/12/17 22:26:18;;;;;;;18.92;6.68;;;3.40;99.90;;;;;;10286266;28;20043;-84
2021/12/17 22:31:19;;;;;;;23.97;8.57;;;3.40;99.90;;;;;;10296732;28;20093;-84
2021/12/17 22:36:20;;;;;;;20.17;6.50;;;3.40;99.90;;;;;;10284144;28;20038;-84
2021/12/17 22:46:28;;;;;;;20.47;6.93;;;3.40;99.90;;;;;;10286593;28;20054;-84
2021/12/17 22:51:28;;;;;;;21.47;7.40;;;3.30;99.90;;;;;;10269116;28;20446;-85
2021/12/17 22:56:29;;;;;;;20.60;7.53;;;3.40;99.90;;;;;;10290683;28;20042;-84
2021/12/17 23:01:36;;;;;;;20.33;6.73;;;3.30;99.90;;;;;;10276581;28;20395;-84
2021/12/17 23:06:43;;;;;;;17.17;6.80;;;3.30;99.90;;;;;;10276410;28;20129;-85
2021/12/17 23:11:48;;;;;;;21.10;6.87;;;3.30;99.90;;;;;;10293534;28;20030;-85
2021/12/17 23:16:50;;;;;;;17.53;5.20;;;3.30;99.90;;;;;;10293046;28;20125;-84
2021/12/17 23:21:51;;;;;;;14.63;5.93;;;3.30;99.90;;;;;;10276078;28;20124;-84
2021/12/17 23:26:52;;;;;;;13.70;5.60;;;3.20;99.90;;;;;;10293427;28;20050;-87
2021/12/17 23:31:52;;;;;;;15.83;5.97;;;3.20;99.90;;;;;;10293083;28;20034;-84
2021/12/17 23:36:55;;;;;;;15.83;5.23;;;3.20;99.90;;;;;;10293116;28;20031;-84
2021/12/17 23:41:57;;;;;;;11.17;5.37;;;3.20;99.90;;;;;;10293246;28;20078;-84
2021/12/17 23:46:57;;;;;;;13.40;5.20;;;3.20;99.90;;;;;;10287235;28;20042;-84
2021/12/17 23:51:58;;;;;;;18.03;6.23;;;3.20;99.90;;;;;;10291896;28;20066;-84
2021/12/17 23:56:59;;;;;;;15.27;6.30;;;3.10;99.90;;;;;;10291430;28;20397;-85
